sensor_id;sensor_type;location;lat;lon;timestamp;P1;durP1;ratioP1;P2;durP2;ratioP2
52730;SDS011;38624;53.242;6.974;2023-11-21T00:01:01;21.55;;;5.10;;
52730;SDS011;38624;53.242;6.974;2023-11-21T00:03:29;18.55;;;5.75;;
52730;SDS011;38624;53.242;6.974;2023-11-21T00:05:55;22.15;;;5.85;;
52730;SDS011;38624;53.242;6.974;2023-11-21T00:08:21;23.25;;;6.50;;
52730;SDS011;38624;53.242;6.974;2023-11-21T00:10:46;19.85;;;6.00;;
52730;SDS011;38624;53.242;6.974;2023-11-21T00:13:13;22.35;;;6.18;;
52730;SDS011;38624;53.242;6.974;2023-11-21T00:15:39;17.67;;;6.10;;
52730;SDS011;38624;53.242;6.974;2023-11-21T00:18:05;21.23;;;5.82;;
52730;SDS011;38624;53.242;6.974;2023-11-21T00:20:31;22.65;;;6.25;;
52730;SDS011;38624;53.242;6.974;2023-11-21T00:22:57;18.45;;;5.43;;
52730;SDS011;38624;53.242;6.974;2023-11-21T00:25:24;17.65;;;5.90;;
52730;SDS011;38624;53.242;6.974;2023-11-21T00:27:50;20.65;;;5.78;;
52730;SDS011;38624;53.242;6.974;2023-11-21T00:30:16;21.08;;;6.05;;
52730;SDS011;38624;53.242;6.974;2023-11-21T00:32:42;21.63;;;6.30;;
52730;SDS011;38624;53.242;6.974;2023-11-21T00:35:08;22.65;;;6.53;;
52730;SDS011;38624;53.242;6.974;2023-11-21T00:37:34;16.08;;;6.57;;
52730;SDS011;38624;53.242;6.974;2023-11-21T00:39:59;19.52;;;5.90;;
52730;SDS011;38624;53.242;6.974;2023-11-21T00:42:28;22.83;;;5.85;;
52730;SDS011;38624;53.242;6.974;2023-11-21T00:44:54;30.58;;;6.53;;
52730;SDS011;38624;53.242;6.974;2023-11-21T00:47:19;16.98;;;6.03;;
52730;SDS011;38624;53.242;6.974;2023-11-21T00:49:45;23.52;;;6.25;;
52730;SDS011;38624;53.242;6.974;2023-11-21T00:52:11;26.73;;;6.28;;
52730;SDS011;38624;53.242;6.974;2023-11-21T00:54:37;20.60;;;6.05;;
52730;SDS011;38624;53.242;6.974;2023-11-21T00:57:02;25.23;;;6.25;;
52730;SDS011;38624;53.242;6.974;2023-11-21T00:59:28;23.02;;;6.20;;
52730;SDS011;38624;53.242;6.974;2023-11-21T01:01:55;20.70;;;6.35;;
52730;SDS011;38624;53.242;6.974;2023-11-21T01:04:21;28.77;;;6.40;;
52730;SDS011;38624;53.242;6.974;2023-11-21T01:06:47;22.70;;;5.68;;
52730;SDS011;38624;53.242;6.974;2023-11-21T01:09:12;25.52;;;6.40;;
52730;SDS011;38624;53.242;6.974;2023-11-21T01:11:38;24.05;;;6.38;;
52730;SDS011;38624;53.242;6.974;2023-11-21T01:14:04;22.17;;;6.28;;
52730;SDS011;38624;53.242;6.974;2023-11-21T01:16:31;22.48;;;6.65;;
52730;SDS011;38624;53.242;6.974;2023-11-21T01:18:59;21.15;;;6.63;;
52730;SDS011;38624;53.242;6.974;2023-11-21T01:21:26;20.48;;;5.80;;
52730;SDS011;38624;53.242;6.974;2023-11-21T01:23:53;25.08;;;6.03;;
52730;SDS011;38624;53.242;6.974;2023-11-21T01:26:20;21.92;;;5.50;;
52730;SDS011;38624;53.242;6.974;2023-11-21T01:28:46;22.33;;;6.10;;
52730;SDS011;38624;53.242;6.974;2023-11-21T01:31:14;21.30;;;5.70;;
52730;SDS011;38624;53.242;6.974;2023-11-21T01:33:40;22.10;;;5.72;;
52730;SDS011;38624;53.242;6.974;2023-11-21T01:36:06;15.20;;;5.10;;
52730;SDS011;38624;53.242;6.974;2023-11-21T01:38:32;14.93;;;5.33;;
52730;SDS011;38624;53.242;6.974;2023-11-21T01:40:58;18.60;;;5.30;;
52730;SDS011;38624;53.242;6.974;2023-11-21T01:43:26;17.10;;;5.45;;
52730;SDS011;38624;53.242;6.974;2023-11-21T01:45:52;15.30;;;4.73;;
52730;SDS011;38624;53.242;6.974;2023-11-21T01:48:22;17.60;;;5.57;;
52730;SDS011;38624;53.242;6.974;2023-11-21T01:50:48;17.60;;;5.63;;
52730;SDS011;38624;53.242;6.974;2023-11-21T01:53:14;23.30;;;6.60;;
52730;SDS011;38624;53.242;6.974;2023-11-21T01:55:40;21.02;;;5.70;;
52730;SDS011;38624;53.242;6.974;2023-11-21T01:58:07;22.42;;;6.25;;
52730;SDS011;38624;53.242;6.974;2023-11-21T02:00:35;22.42;;;6.63;;
52730;SDS011;38624;53.242;6.974;2023-11-21T02:03:00;18.80;;;6.85;;
52730;SDS011;38624;53.242;6.974;2023-11-21T02:05:27;18.77;;;6.43;;
52730;SDS011;38624;53.242;6.974;2023-11-21T02:07:54;20.63;;;6.03;;
52730;SDS011;38624;53.242;6.974;2023-11-21T02:10:21;18.95;;;6.60;;
52730;SDS011;38624;53.242;6.974;2023-11-21T02:12:50;21.15;;;7.50;;
52730;SDS011;38624;53.242;6.974;2023-11-21T02:15:16;17.55;;;6.55;;
52730;SDS011;38624;53.242;6.974;2023-11-21T02:17:45;18.63;;;6.75;;
52730;SDS011;38624;53.242;6.974;2023-11-21T02:20:16;23.70;;;7.57;;
52730;SDS011;38624;53.242;6.974;2023-11-21T02:25:23;21.70;;;7.70;;
52730;SDS011;38624;53.242;6.974;2023-11-21T02:30:16;22.73;;;7.68;;
52730;SDS011;38624;53.242;6.974;2023-11-21T02:32:42;25.88;;;7.47;;
52730;SDS011;38624;53.242;6.974;2023-11-21T02:35:08;27.30;;;7.90;;
52730;SDS011;38624;53.242;6.974;2023-11-21T02:37:34;27.30;;;7.93;;
52730;SDS011;38624;53.242;6.974;2023-11-21T02:40:00;27.35;;;8.75;;
52730;SDS011;38624;53.242;6.974;2023-11-21T02:42:30;24.75;;;8.85;;
52730;SDS011;38624;53.242;6.974;2023-11-21T02:44:56;30.05;;;8.35;;
52730;SDS011;38624;53.242;6.974;2023-11-21T02:47:22;25.90;;;8.13;;
52730;SDS011;38624;53.242;6.974;2023-11-21T02:49:48;21.25;;;8.77;;
52730;SDS011;38624;53.242;6.974;2023-11-21T02:52:14;29.23;;;8.95;;
52730;SDS011;38624;53.242;6.974;2023-11-21T02:54:40;34.22;;;8.65;;
52730;SDS011;38624;53.242;6.974;2023-11-21T02:57:06;25.17;;;9.02;;
52730;SDS011;38624;53.242;6.974;2023-11-21T02:59:32;23.80;;;8.70;;
52730;SDS011;38624;53.242;6.974;2023-11-21T03:01:58;25.65;;;9.18;;
52730;SDS011;38624;53.242;6.974;2023-11-21T03:04:24;27.42;;;9.00;;
52730;SDS011;38624;53.242;6.974;2023-11-21T03:06:49;27.75;;;8.93;;
52730;SDS011;38624;53.242;6.974;2023-11-21T03:09:15;24.38;;;8.45;;
52730;SDS011;38624;53.242;6.974;2023-11-21T03:11:41;24.70;;;9.05;;
52730;SDS011;38624;53.242;6.974;2023-11-21T03:14:07;33.60;;;9.20;;
52730;SDS011;38624;53.242;6.974;2023-11-21T03:16:32;23.10;;;9.23;;
52730;SDS011;38624;53.242;6.974;2023-11-21T03:18:58;30.50;;;9.57;;
52730;SDS011;38624;53.242;6.974;2023-11-21T03:21:24;26.23;;;9.43;;
52730;SDS011;38624;53.242;6.974;2023-11-21T03:23:51;24.27;;;8.93;;
52730;SDS011;38624;53.242;6.974;2023-11-21T03:26:17;23.50;;;9.48;;
52730;SDS011;38624;53.242;6.974;2023-11-21T03:28:43;33.00;;;8.90;;
52730;SDS011;38624;53.242;6.974;2023-11-21T03:31:09;27.08;;;9.35;;
52730;SDS011;38624;53.242;6.974;2023-11-21T03:33:35;26.33;;;8.90;;
52730;SDS011;38624;53.242;6.974;2023-11-21T03:36:01;25.48;;;9.20;;
52730;SDS011;38624;53.242;6.974;2023-11-21T03:38:26;26.95;;;9.82;;
52730;SDS011;38624;53.242;6.974;2023-11-21T03:40:52;32.00;;;10.32;;
52730;SDS011;38624;53.242;6.974;2023-11-21T03:43:18;31.10;;;9.40;;
52730;SDS011;38624;53.242;6.974;2023-11-21T03:45:44;37.58;;;10.65;;
52730;SDS011;38624;53.242;6.974;2023-11-21T03:48:10;28.38;;;9.98;;
52730;SDS011;38624;53.242;6.974;2023-11-21T03:50:38;29.08;;;10.88;;
52730;SDS011;38624;53.242;6.974;2023-11-21T03:53:04;31.10;;;10.52;;
52730;SDS011;38624;53.242;6.974;2023-11-21T03:55:29;41.50;;;10.95;;
52730;SDS011;38624;53.242;6.974;2023-11-21T03:57:57;43.58;;;10.98;;
52730;SDS011;38624;53.242;6.974;2023-11-21T04:00:23;37.15;;;10.68;;
52730;SDS011;38624;53.242;6.974;2023-11-21T04:02:52;42.70;;;11.88;;
52730;SDS011;38624;53.242;6.974;2023-11-21T04:05:19;40.90;;;12.00;;
52730;SDS011;38624;53.242;6.974;2023-11-21T04:07:47;45.78;;;11.95;;
52730;SDS011;38624;53.242;6.974;2023-11-21T04:10:14;46.30;;;12.00;;
52730;SDS011;38624;53.242;6.974;2023-11-21T04:12:40;55.95;;;12.68;;
52730;SDS011;38624;53.242;6.974;2023-11-21T04:15:06;50.92;;;12.75;;
52730;SDS011;38624;53.242;6.974;2023-11-21T04:17:34;70.15;;;12.50;;
52730;SDS011;38624;53.242;6.974;2023-11-21T04:20:00;54.22;;;13.63;;
52730;SDS011;38624;53.242;6.974;2023-11-21T04:22:25;66.35;;;13.30;;
52730;SDS011;38624;53.242;6.974;2023-11-21T04:24:51;60.22;;;13.68;;
52730;SDS011;38624;53.242;6.974;2023-11-21T04:27:17;78.93;;;13.57;;
52730;SDS011;38624;53.242;6.974;2023-11-21T04:29:43;53.88;;;13.45;;
52730;SDS011;38624;53.242;6.974;2023-11-21T04:32:09;61.47;;;13.90;;
52730;SDS011;38624;53.242;6.974;2023-11-21T04:34:35;82.68;;;13.35;;
52730;SDS011;38624;53.242;6.974;2023-11-21T04:37:01;63.83;;;13.57;;
52730;SDS011;38624;53.242;6.974;2023-11-21T04:39:28;57.20;;;13.95;;
52730;SDS011;38624;53.242;6.974;2023-11-21T04:41:53;59.58;;;14.30;;
52730;SDS011;38624;53.242;6.974;2023-11-21T04:44:19;51.80;;;12.75;;
52730;SDS011;38624;53.242;6.974;2023-11-21T04:46:45;38.00;;;11.52;;
52730;SDS011;38624;53.242;6.974;2023-11-21T04:49:11;32.30;;;11.05;;
52730;SDS011;38624;53.242;6.974;2023-11-21T04:51:36;35.10;;;11.60;;
52730;SDS011;38624;53.242;6.974;2023-11-21T04:54:02;40.50;;;9.88;;
52730;SDS011;38624;53.242;6.974;2023-11-21T04:56:28;30.63;;;10.43;;
52730;SDS011;38624;53.242;6.974;2023-11-21T04:58:54;27.17;;;10.50;;
52730;SDS011;38624;53.242;6.974;2023-11-21T05:01:19;25.05;;;8.05;;
52730;SDS011;38624;53.242;6.974;2023-11-21T05:03:46;28.65;;;10.68;;
52730;SDS011;38624;53.242;6.974;2023-11-21T05:06:12;35.03;;;11.27;;
52730;SDS011;38624;53.242;6.974;2023-11-21T05:08:39;29.25;;;10.60;;
52730;SDS011;38624;53.242;6.974;2023-11-21T05:11:05;36.28;;;12.40;;
52730;SDS011;38624;53.242;6.974;2023-11-21T05:16:01;29.67;;;12.05;;
52730;SDS011;38624;53.242;6.974;2023-11-21T05:18:29;33.17;;;13.05;;
52730;SDS011;38624;53.242;6.974;2023-11-21T05:20:55;27.52;;;11.65;;
52730;SDS011;38624;53.242;6.974;2023-11-21T05:23:21;29.83;;;12.70;;
52730;SDS011;38624;53.242;6.974;2023-11-21T05:25:47;31.65;;;12.32;;
52730;SDS011;38624;53.242;6.974;2023-11-21T05:28:12;23.90;;;11.07;;
52730;SDS011;38624;53.242;6.974;2023-11-21T05:30:38;20.30;;;9.27;;
52730;SDS011;38624;53.242;6.974;2023-11-21T05:33:04;26.33;;;11.48;;
52730;SDS011;38624;53.242;6.974;2023-11-21T05:35:30;18.05;;;8.35;;
52730;SDS011;38624;53.242;6.974;2023-11-21T05:37:56;24.52;;;10.18;;
52730;SDS011;38624;53.242;6.974;2023-11-21T05:40:22;22.50;;;9.32;;
52730;SDS011;38624;53.242;6.974;2023-11-21T05:42:48;29.45;;;11.80;;
52730;SDS011;38624;53.242;6.974;2023-11-21T05:45:14;23.50;;;10.55;;
52730;SDS011;38624;53.242;6.974;2023-11-21T05:47:41;21.05;;;9.75;;
52730;SDS011;38624;53.242;6.974;2023-11-21T05:50:11;23.70;;;10.23;;
52730;SDS011;38624;53.242;6.974;2023-11-21T05:52:43;23.98;;;10.30;;
52730;SDS011;38624;53.242;6.974;2023-11-21T05:55:10;27.33;;;10.95;;
52730;SDS011;38624;53.242;6.974;2023-11-21T05:57:36;27.98;;;12.27;;
52730;SDS011;38624;53.242;6.974;2023-11-21T06:00:06;25.35;;;11.80;;
52730;SDS011;38624;53.242;6.974;2023-11-21T06:02:38;22.02;;;10.40;;
52730;SDS011;38624;53.242;6.974;2023-11-21T06:05:05;28.40;;;11.48;;
52730;SDS011;38624;53.242;6.974;2023-11-21T06:07:34;29.13;;;12.95;;
52730;SDS011;38624;53.242;6.974;2023-11-21T06:10:03;19.75;;;9.93;;
52730;SDS011;38624;53.242;6.974;2023-11-21T06:12:35;26.17;;;12.48;;
52730;SDS011;38624;53.242;6.974;2023-11-21T06:15:04;22.02;;;10.40;;
52730;SDS011;38624;53.242;6.974;2023-11-21T06:17:32;23.77;;;11.48;;
52730;SDS011;38624;53.242;6.974;2023-11-21T06:19:58;28.05;;;13.35;;
52730;SDS011;38624;53.242;6.974;2023-11-21T06:22:25;31.17;;;13.93;;
52730;SDS011;38624;53.242;6.974;2023-11-21T06:24:51;30.48;;;13.27;;
52730;SDS011;38624;53.242;6.974;2023-11-21T06:27:17;27.27;;;14.35;;
52730;SDS011;38624;53.242;6.974;2023-11-21T06:29:43;26.15;;;11.50;;
52730;SDS011;38624;53.242;6.974;2023-11-21T06:32:09;29.45;;;13.85;;
52730;SDS011;38624;53.242;6.974;2023-11-21T06:34:34;29.38;;;13.93;;
52730;SDS011;38624;53.242;6.974;2023-11-21T06:37:00;33.90;;;14.65;;
52730;SDS011;38624;53.242;6.974;2023-11-21T06:39:26;27.13;;;13.68;;
52730;SDS011;38624;53.242;6.974;2023-11-21T06:41:52;28.25;;;12.77;;
52730;SDS011;38624;53.242;6.974;2023-11-21T06:44:18;26.67;;;13.57;;
52730;SDS011;38624;53.242;6.974;2023-11-21T06:46:45;24.40;;;12.35;;
52730;SDS011;38624;53.242;6.974;2023-11-21T06:49:10;30.50;;;14.43;;
52730;SDS011;38624;53.242;6.974;2023-11-21T06:51:36;25.02;;;12.98;;
52730;SDS011;38624;53.242;6.974;2023-11-21T06:54:02;25.92;;;12.65;;
52730;SDS011;38624;53.242;6.974;2023-11-21T06:56:28;24.52;;;12.90;;
52730;SDS011;38624;53.242;6.974;2023-11-21T06:58:53;23.45;;;13.25;;
52730;SDS011;38624;53.242;6.974;2023-11-21T07:01:19;24.23;;;11.60;;
52730;SDS011;38624;53.242;6.974;2023-11-21T07:03:45;25.30;;;12.77;;
52730;SDS011;38624;53.242;6.974;2023-11-21T07:06:11;22.00;;;9.65;;
52730;SDS011;38624;53.242;6.974;2023-11-21T07:08:36;25.75;;;13.68;;
52730;SDS011;38624;53.242;6.974;2023-11-21T07:11:03;25.30;;;13.77;;
52730;SDS011;38624;53.242;6.974;2023-11-21T07:13:29;33.67;;;15.73;;
52730;SDS011;38624;53.242;6.974;2023-11-21T07:15:55;27.40;;;13.97;;
52730;SDS011;38624;53.242;6.974;2023-11-21T07:18:22;23.60;;;12.45;;
52730;SDS011;38624;53.242;6.974;2023-11-21T07:20:48;21.95;;;11.63;;
52730;SDS011;38624;53.242;6.974;2023-11-21T07:23:14;21.23;;;11.40;;
52730;SDS011;38624;53.242;6.974;2023-11-21T07:25:40;26.58;;;14.55;;
52730;SDS011;38624;53.242;6.974;2023-11-21T07:28:08;25.25;;;14.00;;
52730;SDS011;38624;53.242;6.974;2023-11-21T07:30:34;27.65;;;16.27;;
52730;SDS011;38624;53.242;6.974;2023-11-21T07:33:00;30.60;;;16.63;;
52730;SDS011;38624;53.242;6.974;2023-11-21T07:35:25;27.40;;;15.43;;
52730;SDS011;38624;53.242;6.974;2023-11-21T07:37:51;28.38;;;15.63;;
52730;SDS011;38624;53.242;6.974;2023-11-21T07:40:17;25.80;;;16.42;;
52730;SDS011;38624;53.242;6.974;2023-11-21T07:42:43;26.95;;;16.08;;
52730;SDS011;38624;53.242;6.974;2023-11-21T07:45:09;27.15;;;14.70;;
52730;SDS011;38624;53.242;6.974;2023-11-21T07:47:34;25.83;;;15.00;;
52730;SDS011;38624;53.242;6.974;2023-11-21T07:50:01;21.20;;;12.23;;
52730;SDS011;38624;53.242;6.974;2023-11-21T07:52:28;21.33;;;14.63;;
52730;SDS011;38624;53.242;6.974;2023-11-21T07:54:54;17.05;;;9.45;;
52730;SDS011;38624;53.242;6.974;2023-11-21T07:57:19;20.58;;;12.15;;
52730;SDS011;38624;53.242;6.974;2023-11-21T07:59:45;18.35;;;11.95;;
52730;SDS011;38624;53.242;6.974;2023-11-21T08:02:11;22.02;;;11.95;;
52730;SDS011;38624;53.242;6.974;2023-11-21T08:04:37;18.92;;;11.95;;
52730;SDS011;38624;53.242;6.974;2023-11-21T08:07:02;18.38;;;12.38;;
52730;SDS011;38624;53.242;6.974;2023-11-21T08:09:28;19.50;;;12.30;;
52730;SDS011;38624;53.242;6.974;2023-11-21T08:11:55;20.33;;;11.90;;
52730;SDS011;38624;53.242;6.974;2023-11-21T08:14:21;17.23;;;10.52;;
52730;SDS011;38624;53.242;6.974;2023-11-21T08:16:50;22.05;;;12.25;;
52730;SDS011;38624;53.242;6.974;2023-11-21T08:19:16;17.55;;;10.68;;
52730;SDS011;38624;53.242;6.974;2023-11-21T08:21:43;19.30;;;12.40;;
52730;SDS011;38624;53.242;6.974;2023-11-21T08:24:09;18.88;;;11.18;;
52730;SDS011;38624;53.242;6.974;2023-11-21T08:26:36;19.93;;;11.77;;
52730;SDS011;38624;53.242;6.974;2023-11-21T08:29:03;20.77;;;12.77;;
52730;SDS011;38624;53.242;6.974;2023-11-21T08:31:28;21.42;;;12.30;;
52730;SDS011;38624;53.242;6.974;2023-11-21T08:33:55;20.52;;;12.70;;
52730;SDS011;38624;53.242;6.974;2023-11-21T08:36:21;17.27;;;10.45;;
52730;SDS011;38624;53.242;6.974;2023-11-21T08:38:49;19.27;;;10.88;;
52730;SDS011;38624;53.242;6.974;2023-11-21T08:41:17;20.45;;;12.52;;
52730;SDS011;38624;53.242;6.974;2023-11-21T08:43:47;19.33;;;12.55;;
52730;SDS011;38624;53.242;6.974;2023-11-21T08:46:13;19.33;;;10.00;;
52730;SDS011;38624;53.242;6.974;2023-11-21T08:48:40;19.52;;;12.88;;
52730;SDS011;38624;53.242;6.974;2023-11-21T08:51:06;17.60;;;11.63;;
52730;SDS011;38624;53.242;6.974;2023-11-21T08:53:35;16.58;;;10.45;;
52730;SDS011;38624;53.242;6.974;2023-11-21T08:56:00;17.58;;;11.05;;
52730;SDS011;38624;53.242;6.974;2023-11-21T08:58:26;17.40;;;11.03;;
52730;SDS011;38624;53.242;6.974;2023-11-21T09:00:52;16.02;;;9.77;;
52730;SDS011;38624;53.242;6.974;2023-11-21T09:03:18;13.52;;;9.77;;
52730;SDS011;38624;53.242;6.974;2023-11-21T09:05:44;13.43;;;7.80;;
52730;SDS011;38624;53.242;6.974;2023-11-21T09:08:09;15.65;;;9.00;;
52730;SDS011;38624;53.242;6.974;2023-11-21T09:10:35;14.70;;;9.27;;
52730;SDS011;38624;53.242;6.974;2023-11-21T09:13:02;12.77;;;8.23;;
52730;SDS011;38624;53.242;6.974;2023-11-21T09:15:27;14.13;;;8.32;;
52730;SDS011;38624;53.242;6.974;2023-11-21T09:17:53;10.27;;;6.72;;
52730;SDS011;38624;53.242;6.974;2023-11-21T09:20:19;13.27;;;8.25;;
52730;SDS011;38624;53.242;6.974;2023-11-21T09:22:48;11.98;;;8.00;;
52730;SDS011;38624;53.242;6.974;2023-11-21T09:25:14;11.60;;;7.05;;
52730;SDS011;38624;53.242;6.974;2023-11-21T09:27:40;10.85;;;6.90;;
52730;SDS011;38624;53.242;6.974;2023-11-21T09:30:06;11.40;;;6.90;;
52730;SDS011;38624;53.242;6.974;2023-11-21T09:32:37;10.88;;;6.50;;
52730;SDS011;38624;53.242;6.974;2023-11-21T09:35:06;10.38;;;6.47;;
52730;SDS011;38624;53.242;6.974;2023-11-21T09:37:34;11.85;;;7.20;;
52730;SDS011;38624;53.242;6.974;2023-11-21T09:40:03;11.35;;;7.80;;
52730;SDS011;38624;53.242;6.974;2023-11-21T09:42:31;11.57;;;6.88;;
52730;SDS011;38624;53.242;6.974;2023-11-21T09:45:27;11.15;;;6.80;;
52730;SDS011;38624;53.242;6.974;2023-11-21T09:47:57;11.57;;;7.43;;
52730;SDS011;38624;53.242;6.974;2023-11-21T09:50:23;12.60;;;7.68;;
52730;SDS011;38624;53.242;6.974;2023-11-21T09:55:35;11.43;;;7.57;;
52730;SDS011;38624;53.242;6.974;2023-11-21T09:58:04;11.63;;;6.85;;
52730;SDS011;38624;53.242;6.974;2023-11-21T10:00:33;12.75;;;6.78;;
52730;SDS011;38624;53.242;6.974;2023-11-21T10:02:59;12.33;;;6.97;;
52730;SDS011;38624;53.242;6.974;2023-11-21T10:05:25;11.65;;;7.20;;
52730;SDS011;38624;53.242;6.974;2023-11-21T10:07:51;12.27;;;7.55;;
52730;SDS011;38624;53.242;6.974;2023-11-21T10:10:19;13.02;;;7.70;;
52730;SDS011;38624;53.242;6.974;2023-11-21T10:12:49;12.85;;;7.78;;
52730;SDS011;38624;53.242;6.974;2023-11-21T10:15:20;12.30;;;7.60;;
52730;SDS011;38624;53.242;6.974;2023-11-21T10:17:48;10.95;;;7.05;;
52730;SDS011;38624;53.242;6.974;2023-11-21T10:20:15;11.52;;;6.72;;
52730;SDS011;38624;53.242;6.974;2023-11-21T10:22:42;13.95;;;6.72;;
52730;SDS011;38624;53.242;6.974;2023-11-21T10:25:11;11.07;;;6.97;;
52730;SDS011;38624;53.242;6.974;2023-11-21T10:27:40;11.32;;;6.25;;
52730;SDS011;38624;53.242;6.974;2023-11-21T10:32:33;10.77;;;6.78;;
52730;SDS011;38624;53.242;6.974;2023-11-21T10:34:59;12.77;;;6.70;;
52730;SDS011;38624;53.242;6.974;2023-11-21T10:37:32;11.25;;;6.80;;
52730;SDS011;38624;53.242;6.974;2023-11-21T10:39:58;10.35;;;6.53;;
52730;SDS011;38624;53.242;6.974;2023-11-21T10:42:24;9.70;;;7.00;;
52730;SDS011;38624;53.242;6.974;2023-11-21T10:44:51;9.43;;;6.68;;
52730;SDS011;38624;53.242;6.974;2023-11-21T10:47:17;9.93;;;5.70;;
52730;SDS011;38624;53.242;6.974;2023-11-21T10:49:44;12.45;;;7.10;;
52730;SDS011;38624;53.242;6.974;2023-11-21T10:52:12;11.93;;;6.50;;
52730;SDS011;38624;53.242;6.974;2023-11-21T10:54:44;10.45;;;6.38;;
52730;SDS011;38624;53.242;6.974;2023-11-21T10:57:10;10.13;;;7.25;;
52730;SDS011;38624;53.242;6.974;2023-11-21T10:59:40;9.80;;;6.50;;
52730;SDS011;38624;53.242;6.974;2023-11-21T11:02:24;9.40;;;5.90;;
52730;SDS011;38624;53.242;6.974;2023-11-21T11:04:53;10.07;;;6.32;;
52730;SDS011;38624;53.242;6.974;2023-11-21T11:07:24;10.45;;;5.88;;
52730;SDS011;38624;53.242;6.974;2023-11-21T11:09:52;8.75;;;5.78;;
52730;SDS011;38624;53.242;6.974;2023-11-21T11:12:23;9.50;;;6.47;;
52730;SDS011;38624;53.242;6.974;2023-11-21T11:14:49;10.77;;;6.47;;
52730;SDS011;38624;53.242;6.974;2023-11-21T11:17:16;10.70;;;7.03;;
52730;SDS011;38624;53.242;6.974;2023-11-21T11:19:45;9.50;;;6.25;;
52730;SDS011;38624;53.242;6.974;2023-11-21T11:22:23;10.85;;;6.28;;
52730;SDS011;38624;53.242;6.974;2023-11-21T11:38:02;9.55;;;6.05;;
52730;SDS011;38624;53.242;6.974;2023-11-21T11:40:46;11.20;;;6.20;;
52730;SDS011;38624;53.242;6.974;2023-11-21T11:43:13;10.23;;;5.05;;
52730;SDS011;38624;53.242;6.974;2023-11-21T11:45:40;8.77;;;5.63;;
52730;SDS011;38624;53.242;6.974;2023-11-21T11:48:11;7.88;;;4.65;;
52730;SDS011;38624;53.242;6.974;2023-11-21T11:50:42;10.77;;;6.53;;
52730;SDS011;38624;53.242;6.974;2023-11-21T11:53:40;11.20;;;6.50;;
52730;SDS011;38624;53.242;6.974;2023-11-21T11:56:18;9.52;;;6.20;;
52730;SDS011;38624;53.242;6.974;2023-11-21T11:58:56;11.82;;;7.45;;
52730;SDS011;38624;53.242;6.974;2023-11-21T12:01:27;13.20;;;8.75;;
52730;SDS011;38624;53.242;6.974;2023-11-21T12:06:39;14.70;;;8.45;;
52730;SDS011;38624;53.242;6.974;2023-11-21T12:09:07;17.23;;;9.25;;
52730;SDS011;38624;53.242;6.974;2023-11-21T12:11:40;13.32;;;8.93;;
52730;SDS011;38624;53.242;6.974;2023-11-21T12:14:09;14.38;;;8.95;;
52730;SDS011;38624;53.242;6.974;2023-11-21T12:16:35;14.15;;;8.63;;
52730;SDS011;38624;53.242;6.974;2023-11-21T12:19:00;13.00;;;8.25;;
52730;SDS011;38624;53.242;6.974;2023-11-21T12:21:26;13.88;;;8.52;;
52730;SDS011;38624;53.242;6.974;2023-11-21T12:23:53;16.80;;;9.13;;
52730;SDS011;38624;53.242;6.974;2023-11-21T12:26:19;12.40;;;7.90;;
52730;SDS011;38624;53.242;6.974;2023-11-21T12:28:51;13.98;;;8.73;;
52730;SDS011;38624;53.242;6.974;2023-11-21T12:31:23;14.15;;;8.50;;
52730;SDS011;38624;53.242;6.974;2023-11-21T12:33:49;11.43;;;6.60;;
52730;SDS011;38624;53.242;6.974;2023-11-21T12:36:16;12.52;;;6.78;;
52730;SDS011;38624;53.242;6.974;2023-11-21T12:38:42;14.35;;;6.97;;
52730;SDS011;38624;53.242;6.974;2023-11-21T12:41:11;13.00;;;7.13;;
52730;SDS011;38624;53.242;6.974;2023-11-21T12:43:36;10.63;;;7.13;;
52730;SDS011;38624;53.242;6.974;2023-11-21T12:46:07;13.63;;;7.80;;
52730;SDS011;38624;53.242;6.974;2023-11-21T12:48:38;10.75;;;7.00;;
52730;SDS011;38624;53.242;6.974;2023-11-21T12:51:07;13.23;;;7.40;;
52730;SDS011;38624;53.242;6.974;2023-11-21T12:56:12;12.15;;;7.35;;
52730;SDS011;38624;53.242;6.974;2023-11-21T12:58:44;10.85;;;7.22;;
52730;SDS011;38624;53.242;6.974;2023-11-21T13:01:12;14.68;;;7.15;;
52730;SDS011;38624;53.242;6.974;2023-11-21T13:03:43;11.48;;;7.15;;
52730;SDS011;38624;53.242;6.974;2023-11-21T13:06:10;10.93;;;6.65;;
52730;SDS011;38624;53.242;6.974;2023-11-21T13:08:37;11.90;;;7.07;;
52730;SDS011;38624;53.242;6.974;2023-11-21T13:11:04;13.25;;;6.63;;
52730;SDS011;38624;53.242;6.974;2023-11-21T13:13:31;10.20;;;6.70;;
52730;SDS011;38624;53.242;6.974;2023-11-21T13:15:58;11.90;;;7.72;;
52730;SDS011;38624;53.242;6.974;2023-11-21T13:18:31;11.50;;;7.18;;
52730;SDS011;38624;53.242;6.974;2023-11-21T13:21:04;12.15;;;7.80;;
52730;SDS011;38624;53.242;6.974;2023-11-21T13:23:36;14.70;;;7.82;;
52730;SDS011;38624;53.242;6.974;2023-11-21T13:26:03;12.73;;;7.88;;
52730;SDS011;38624;53.242;6.974;2023-11-21T13:28:29;13.70;;;8.07;;
52730;SDS011;38624;53.242;6.974;2023-11-21T13:30:58;12.10;;;6.65;;
52730;SDS011;38624;53.242;6.974;2023-11-21T13:33:34;9.10;;;6.80;;
52730;SDS011;38624;53.242;6.974;2023-11-21T13:36:06;10.98;;;6.97;;
52730;SDS011;38624;53.242;6.974;2023-11-21T13:38:34;9.45;;;5.93;;
52730;SDS011;38624;53.242;6.974;2023-11-21T13:41:02;9.30;;;5.80;;
52730;SDS011;38624;53.242;6.974;2023-11-21T13:43:32;8.57;;;5.93;;
52730;SDS011;38624;53.242;6.974;2023-11-21T13:45:58;8.50;;;5.43;;
52730;SDS011;38624;53.242;6.974;2023-11-21T13:48:28;9.13;;;5.78;;
52730;SDS011;38624;53.242;6.974;2023-11-21T13:51:02;10.73;;;6.28;;
52730;SDS011;38624;53.242;6.974;2023-11-21T13:53:47;8.68;;;4.30;;
52730;SDS011;38624;53.242;6.974;2023-11-21T13:56:15;10.05;;;5.60;;
52730;SDS011;38624;53.242;6.974;2023-11-21T14:01:28;8.88;;;5.00;;
52730;SDS011;38624;53.242;6.974;2023-11-21T14:03:56;8.30;;;5.30;;
52730;SDS011;38624;53.242;6.974;2023-11-21T14:06:33;9.27;;;5.27;;
52730;SDS011;38624;53.242;6.974;2023-11-21T14:09:05;9.38;;;5.90;;
52730;SDS011;38624;53.242;6.974;2023-11-21T14:11:32;8.00;;;3.78;;
52730;SDS011;38624;53.242;6.974;2023-11-21T14:14:02;8.82;;;5.20;;
52730;SDS011;38624;53.242;6.974;2023-11-21T14:16:28;9.32;;;4.80;;
52730;SDS011;38624;53.242;6.974;2023-11-21T14:18:54;7.95;;;5.18;;
52730;SDS011;38624;53.242;6.974;2023-11-21T14:21:29;8.10;;;4.93;;
52730;SDS011;38624;53.242;6.974;2023-11-21T14:23:54;8.40;;;5.40;;
52730;SDS011;38624;53.242;6.974;2023-11-21T14:26:20;8.55;;;5.35;;
52730;SDS011;38624;53.242;6.974;2023-11-21T14:28:46;9.40;;;5.83;;
52730;SDS011;38624;53.242;6.974;2023-11-21T14:31:14;7.60;;;5.32;;
52730;SDS011;38624;53.242;6.974;2023-11-21T14:33:42;8.20;;;5.28;;
52730;SDS011;38624;53.242;6.974;2023-11-21T14:38:38;11.43;;;4.93;;
52730;SDS011;38624;53.242;6.974;2023-11-21T14:41:05;13.48;;;5.63;;
52730;SDS011;38624;53.242;6.974;2023-11-21T14:43:33;8.85;;;5.47;;
52730;SDS011;38624;53.242;6.974;2023-11-21T14:46:03;8.73;;;5.63;;
52730;SDS011;38624;53.242;6.974;2023-11-21T14:48:33;10.63;;;5.50;;
52730;SDS011;38624;53.242;6.974;2023-11-21T14:51:11;8.80;;;4.93;;
52730;SDS011;38624;53.242;6.974;2023-11-21T14:53:59;8.57;;;4.90;;
52730;SDS011;38624;53.242;6.974;2023-11-21T14:56:34;9.10;;;5.38;;
52730;SDS011;38624;53.242;6.974;2023-11-21T14:59:02;7.90;;;4.63;;
52730;SDS011;38624;53.242;6.974;2023-11-21T15:01:33;6.43;;;3.35;;
52730;SDS011;38624;53.242;6.974;2023-11-21T15:04:32;7.68;;;3.60;;
52730;SDS011;38624;53.242;6.974;2023-11-21T15:07:05;8.60;;;4.60;;
52730;SDS011;38624;53.242;6.974;2023-11-21T15:09:31;7.45;;;4.50;;